Terminal Aerodrome Forecast
Issued by NWS Sterling, VA

Current Version | Previous Version | Graphics & Text | Print | Product List | Glossary On
Versions: 1 2 3 4 5 6 7 8 9 10 11 12 13 14 15 16 17 18 19 20 21 22 23 24 25 26 27 28
735
FTUS41 KLWX 141134
TAFIAD
TAF
KIAD 141134Z 1412/1518 33004KT P6SM BKN100
     FM141400 09004KT P6SM BKN140
     FM151000 00000KT P6SM BKN040
      TEMPO 1510/1513 5SM BR
     FM151400 VRB03KT P6SM BKN050=

USA.gov is the U.S. government's official web portal to all federal, state and local government web resources and services.